Raleigh Durham International Airport
KRDU : now visible

Airfield :











YOU CAN JOIN US ON...

 
LOGIN :

Register | Disclaimer

   EN    FR    IT 

 









Legend :    VFR   Marginal VFR   IFR   Intensive IFR   Very Intensive IFR
Visi :
Ceiling :
>= 8 km
>= 3000ft
5 to 8 km
1000 to 3000 ft
1500m to 5 km
500 to 1000 ft
800 to 1500m
200 to 500 ft
< 800m
< 200 ft
Symbols :   Thunderstorms  Fog  Heavy snow  Heavy precipitations  Wind > 20 kt






- Airport Elevation : 435 ft
- IATA code : RDU


KRDU - Raleigh Durham International

CURRENT METAR :
  • 031351Z 17005KT 10SM SCT015TCU SCT070 BKN160 BKN250 28/24 A3006 RMK AO2 RAE01 SLP174 TCU ALQDS P0002 T02780239

EXPIRED METARs :
  • 031302Z VRB04KT 10SM SCT012TCU BKN100 BKN250 27/24 A3008 RMK AO2 RAE01 TCU W-N-NE P0002 T02670244
  • 031251Z 19007KT 10SM -RA BKN012TCU BKN100 BKN250 27/24 A3008 RMK AO2 RAB49 SLP181 TCU ALQDS P0000 T02720239
  • 031151Z 16003KT 10SM BKN010 BKN035 BKN250 26/24 A3008 RMK AO2 SLP178 T02560244 10261 20244 51011

TAF KRDU
Valid from the 03 at 12:00 until the 04 at 12:00 UTC


031134Z 0312/0412 21009KT P6SM BKN025
TEMPO 0312/0314 3SM BR BKN008
FM031500 18005KT 6SM -SHRA SCT020 BKN050
TEMPO 0319/0322 3SM -TSRA BR BKN035CB
FM040200 08010G17KT 5SM SHRA OVC030
FM040400 05014G22KT 2SM +SHRA OVC015
FM041100 27010G17KT 2SM +SHRA OVC015
KZDC FIR / North America



MET'MAP, your aeronautical weather chart ! - Copyright ORBIFLY December 2007 - Disclaimer

ORBIFLY MET'MAP TEAM :

Programming & Development : Alexandra Zaïnal
Concept & original design : Baudouin d'Aumeries
Assistance for programming : Marc-Olivier Méhu
Technical & hardware support : Manuel Goepfert

Contact : metmap@orbifly.com




SOURCES & CREDITS :

   NOAA       Earth
Advisory